createdAt,value
2023-04-15T00:01:45.092Z,100812.72
2023-04-15T00:04:13.014Z,100814.69
2023-04-15T00:06:40.992Z,100810.72
2023-04-15T00:09:08.866Z,100809.31
2023-04-15T00:11:38.021Z,100817.38
2023-04-15T00:14:06.236Z,100817.22
2023-04-15T00:16:34.046Z,100820.22
2023-04-15T00:19:01.954Z,100820.53
2023-04-15T00:21:30.060Z,100814.78
2023-04-15T00:23:57.867Z,100808.72
2023-04-15T00:26:25.586Z,100810.06
2023-04-15T00:28:55.069Z,100807.47
2023-04-15T00:31:23.108Z,100812.28
2023-04-15T00:33:51.060Z,100814.56
2023-04-15T00:36:18.835Z,100816.47
2023-04-15T00:38:46.562Z,100812.38
2023-04-15T00:41:14.573Z,100813.75
2023-04-15T00:43:42.374Z,100815.72
2023-04-15T00:46:16.898Z,100819.53
2023-04-15T00:48:45.086Z,100814.66
2023-04-15T00:51:13.195Z,100820.47
2023-04-15T00:53:41.133Z,100815.63
2023-04-15T00:56:09.096Z,100818.66
2023-04-15T00:58:37.120Z,100823.56
2023-04-15T01:01:05.573Z,100813.00
2023-04-15T01:03:35.374Z,100821.63
2023-04-15T01:06:04.412Z,100820.09
2023-04-15T01:08:32.574Z,100820.09
2023-04-15T01:11:03.490Z,100823.28
2023-04-15T01:13:32.320Z,100817.22
2023-04-15T01:16:00.236Z,100818.84
2023-04-15T01:18:28.570Z,100825.47
2023-04-15T01:20:58.192Z,100826.38
2023-04-15T01:23:26.310Z,100821.81
2023-04-15T01:25:57.349Z,100819.06
2023-04-15T01:28:25.409Z,100816.91
2023-04-15T01:31:07.484Z,100819.13
2023-04-15T01:33:38.542Z,100815.75
2023-04-15T01:36:10.003Z,100817.53
2023-04-15T01:38:38.438Z,100819.63
2023-04-15T01:41:08.225Z,100817.56
2023-04-15T01:43:37.234Z,100824.47
2023-04-15T01:46:05.143Z,100816.75
2023-04-15T01:48:33.466Z,100821.66
2023-04-15T01:51:01.431Z,100819.94
2023-04-15T01:53:29.444Z,100827.34
2023-04-15T01:55:57.236Z,100823.28
2023-04-15T01:58:27.182Z,100821.00
2023-04-15T02:00:55.447Z,100819.59
2023-04-15T02:03:23.639Z,100817.31
2023-04-15T02:05:53.578Z,100823.53
2023-04-15T02:08:22.414Z,100823.84
2023-04-15T02:10:50.343Z,100827.34
2023-04-15T02:13:18.167Z,100824.28
2023-04-15T02:15:50.033Z,100821.38
2023-04-15T02:18:20.501Z,100831.13
2023-04-15T02:20:48.811Z,100832.16
2023-04-15T02:23:16.814Z,100831.03
2023-04-15T02:25:53.432Z,100844.44
2023-04-15T02:28:22.179Z,100844.44
2023-04-15T02:30:53.327Z,100843.66
2023-04-15T02:33:22.518Z,100840.94
2023-04-15T02:35:50.834Z,100845.31
2023-04-15T02:38:18.638Z,100852.81
2023-04-15T02:40:46.618Z,100854.75
2023-04-15T02:43:14.385Z,100865.41
2023-04-15T02:45:43.520Z,100863.69
2023-04-15T02:48:12.784Z,100866.59
2023-04-15T02:50:40.803Z,100871.16
2023-04-15T02:53:10.503Z,100875.75
2023-04-15T02:55:38.248Z,100867.25
2023-04-15T02:58:06.097Z,100876.16
2023-04-15T03:00:34.009Z,100877.78
2023-04-15T03:03:05.640Z,100873.66
2023-04-15T03:05:34.971Z,100873.75
2023-04-15T03:08:05.299Z,100876.25
2023-04-15T03:10:33.054Z,100877.44
2023-04-15T03:13:02.673Z,100880.06
2023-04-15T03:15:30.773Z,100885.25
2023-04-15T03:17:58.663Z,100887.63
2023-04-15T03:20:26.505Z,100879.28
2023-04-15T03:22:55.870Z,100884.03
2023-04-15T03:25:25.096Z,100883.72
2023-04-15T03:27:52.919Z,100884.66
2023-04-15T03:30:20.759Z,100887.72
2023-04-15T03:32:48.575Z,100891.19
2023-04-15T03:35:17.097Z,100885.66
2023-04-15T03:37:44.904Z,100887.97
2023-04-15T03:40:14.302Z,100893.38
2023-04-15T03:42:42.098Z,100886.44
2023-04-15T03:45:10.786Z,100895.09
2023-04-15T03:47:38.643Z,100898.91
2023-04-15T03:50:07.492Z,100915.63
2023-04-15T03:52:35.435Z,100914.31
2023-04-15T03:55:03.309Z,100911.94
2023-04-15T03:57:32.416Z,100920.41
2023-04-15T04:00:00.224Z,100918.44
2023-04-15T04:02:28.297Z,100913.44
2023-04-15T04:04:56.294Z,100910.38
2023-04-15T04:07:25.479Z,100920.25
2023-04-15T04:09:53.352Z,100927.97
2023-04-15T04:12:21.087Z,100935.47
2023-04-15T04:14:50.453Z,100939.34
2023-04-15T04:17:18.319Z,100942.50
2023-04-15T04:19:46.398Z,100943.44
2023-04-15T04:22:14.133Z,100945.41
2023-04-15T04:24:41.914Z,100941.69
2023-04-15T04:27:09.666Z,100950.34
2023-04-15T04:29:37.406Z,100946.44
2023-04-15T04:32:07.026Z,100951.19
2023-04-15T04:34:34.838Z,100948.91
2023-04-15T04:37:02.641Z,100961.44
2023-04-15T04:39:30.508Z,100956.13
2023-04-15T04:41:58.278Z,100962.22
2023-04-15T04:44:26.153Z,100976.63
2023-04-15T04:46:54.095Z,100975.53
2023-04-15T04:49:23.197Z,100982.75
2023-04-15T04:51:51.449Z,100982.81
2023-04-15T04:54:19.228Z,100980.09
2023-04-15T04:56:47.066Z,100995.38
2023-04-15T04:59:14.828Z,100990.13
2023-04-15T05:01:42.887Z,101003.75
2023-04-15T05:04:10.786Z,100995.28
2023-04-15T05:06:39.961Z,101003.16
2023-04-15T05:09:08.105Z,101006.22
2023-04-15T05:11:35.951Z,101016.72
2023-04-15T05:14:03.713Z,101022.72
2023-04-15T05:16:31.514Z,101018.50
2023-04-15T05:18:59.499Z,101025.44
2023-04-15T05:21:27.662Z,101028.41
2023-04-15T05:23:56.787Z,101020.94
2023-04-15T05:26:24.896Z,101034.84
2023-04-15T05:28:52.658Z,101039.09
2023-04-15T05:31:20.994Z,101041.03
2023-04-15T05:33:48.841Z,101050.78
2023-04-15T05:36:16.673Z,101048.06
2023-04-15T05:38:44.438Z,101053.84
2023-04-15T05:41:16.586Z,101059.19
2023-04-15T05:43:46.473Z,101062.22
2023-04-15T05:46:14.304Z,101057.91
2023-04-15T05:48:42.152Z,101070.63
2023-04-15T05:51:10.551Z,101077.16
2023-04-15T05:53:38.355Z,101074.03
2023-04-15T05:56:06.557Z,101082.50
2023-04-15T05:58:35.756Z,101080.13
2023-04-15T06:01:04.002Z,101081.31
2023-04-15T06:03:31.931Z,101093.25
2023-04-15T06:06:00.870Z,101091.66
2023-04-15T06:08:28.869Z,101097.00
2023-04-15T06:10:56.749Z,101102.78
2023-04-15T06:13:24.561Z,101105.06
2023-04-15T06:15:54.076Z,101103.78
2023-04-15T06:18:22.236Z,101112.19
2023-04-15T06:20:50.061Z,101113.63
2023-04-15T06:23:17.874Z,101118.13
2023-04-15T06:25:45.773Z,101114.91
2023-04-15T06:28:13.676Z,101126.69
2023-04-15T06:30:41.516Z,101130.34
2023-04-15T06:33:10.785Z,101131.25
2023-04-15T06:35:39.172Z,101137.53
2023-04-15T06:38:07.079Z,101141.84
2023-04-15T06:40:35.986Z,101139.91
2023-04-15T06:43:04.830Z,101145.63
2023-04-15T06:45:32.665Z,101154.44
2023-04-15T06:48:00.707Z,101156.34
2023-04-15T06:50:29.926Z,101172.03
2023-04-15T06:52:58.241Z,101174.19
2023-04-15T06:55:26.003Z,101179.31
2023-04-15T06:57:53.765Z,101181.16
2023-04-15T07:00:21.588Z,101178.13
2023-04-15T07:02:52.786Z,101182.78
2023-04-15T07:05:20.715Z,101189.44
2023-04-15T07:07:50.210Z,101194.09
2023-04-15T07:10:18.256Z,101199.28
2023-04-15T07:12:46.179Z,101198.06
2023-04-15T07:15:13.953Z,101205.69
2023-04-15T07:17:43.142Z,101208.72
2023-04-15T07:20:11.798Z,101219.94
2023-04-15T07:22:39.732Z,101214.78
2023-04-15T07:25:10.131Z,101229.84
2023-04-15T07:27:37.943Z,101229.09
2023-04-15T07:30:06.786Z,101227.41
2023-04-15T07:32:34.627Z,101227.56
2023-04-15T07:35:03.707Z,101234.69
2023-04-15T07:37:31.532Z,101233.59
2023-04-15T07:39:59.270Z,101240.50
2023-04-15T07:42:29.226Z,101232.91
2023-04-15T07:44:57.748Z,101240.69
2023-04-15T07:47:25.761Z,101244.91
2023-04-15T07:49:54.064Z,101248.78
2023-04-15T07:52:22.286Z,101247.56
2023-04-15T07:54:50.036Z,101254.41
2023-04-15T07:57:18.377Z,101249.56
2023-04-15T07:59:47.501Z,101256.88
2023-04-15T08:02:15.463Z,101260.63
2023-04-15T08:04:43.589Z,101264.00
2023-04-15T08:07:11.780Z,101258.94
2023-04-15T08:09:39.532Z,101263.09
2023-04-15T08:12:09.439Z,101266.00
2023-04-15T08:14:37.239Z,101264.72
2023-04-15T08:17:06.687Z,101277.50
2023-04-15T08:19:34.501Z,101277.03
2023-04-15T08:22:02.405Z,101278.44
2023-04-15T08:24:31.476Z,101280.69
2023-04-15T08:26:59.889Z,101281.78
2023-04-15T08:29:27.757Z,101277.84
2023-04-15T08:31:55.737Z,101282.19
2023-04-15T08:34:25.272Z,101287.78
2023-04-15T08:36:53.085Z,101300.91
2023-04-15T08:39:20.997Z,101293.47
2023-04-15T08:41:52.748Z,101293.50
2023-04-15T08:44:22.129Z,101305.00
2023-04-15T08:46:50.516Z,101314.78
2023-04-15T08:49:20.232Z,101315.78
2023-04-15T08:51:50.231Z,101318.56
2023-04-15T08:54:18.074Z,101324.06
2023-04-15T08:56:46.248Z,101330.06
2023-04-15T08:59:14.904Z,101336.81
2023-04-15T09:01:42.954Z,101336.94
2023-04-15T09:04:12.630Z,101339.00
2023-04-15T09:06:41.601Z,101340.50
2023-04-15T09:09:10.748Z,101337.50
2023-04-15T09:11:38.629Z,101350.38
2023-04-15T09:14:06.426Z,101353.88
2023-04-15T09:16:57.752Z,101360.94
2023-04-15T09:19:26.260Z,101361.72
2023-04-15T09:21:58.411Z,101368.22
2023-04-15T09:24:38.380Z,101377.50
2023-04-15T09:27:06.839Z,101373.69
2023-04-15T09:29:34.831Z,101379.28
2023-04-15T09:32:13.537Z,101385.28
2023-04-15T09:34:41.341Z,101382.06
2023-04-15T09:37:10.873Z,101385.34
2023-04-15T09:39:51.007Z,101385.59
2023-04-15T09:42:24.345Z,101378.81
2023-04-15T09:44:52.921Z,101384.59
2023-04-15T09:47:38.795Z,101387.84
2023-04-15T09:50:07.600Z,101383.84
2023-04-15T09:52:43.005Z,101392.41
2023-04-15T09:55:13.008Z,101381.81
2023-04-15T09:57:42.417Z,101384.56
2023-04-15T10:00:11.373Z,101386.28
2023-04-15T10:02:40.955Z,101402.38
2023-04-15T10:05:11.917Z,101402.84
2023-04-15T10:07:41.039Z,101401.34
2023-04-15T10:10:09.595Z,101403.94
2023-04-15T10:12:42.110Z,101404.72
2023-04-15T10:15:17.530Z,101409.72
2023-04-15T10:17:46.271Z,101408.25
2023-04-15T10:20:15.962Z,101419.31
2023-04-15T10:22:46.381Z,101413.53
2023-04-15T10:25:16.394Z,101419.03
2023-04-15T10:27:46.461Z,101421.28
2023-04-15T10:30:14.671Z,101422.00
2023-04-15T10:32:43.273Z,101411.41
2023-04-15T10:35:12.173Z,101414.38
2023-04-15T10:37:40.322Z,101418.31
2023-04-15T10:40:29.139Z,101417.94
2023-04-15T10:42:59.448Z,101426.22
2023-04-15T10:45:28.839Z,101427.88
2023-04-15T10:47:58.086Z,101435.44
2023-04-15T10:50:29.733Z,101432.28
2023-04-15T10:52:58.362Z,101442.03
2023-04-15T10:55:27.802Z,101443.09
2023-04-15T10:57:56.879Z,101439.84
2023-04-15T11:00:29.710Z,101449.69
2023-04-15T11:03:01.194Z,101454.72
2023-04-15T11:05:50.387Z,101448.94
2023-04-15T11:08:18.314Z,101447.72
2023-04-15T11:10:55.243Z,101455.28
2023-04-15T11:13:31.689Z,101455.78
2023-04-15T11:16:02.566Z,101451.50
2023-04-15T11:18:36.299Z,101462.81
2023-04-15T11:21:06.793Z,101460.31
2023-04-15T11:23:38.021Z,101458.81
2023-04-15T11:26:09.535Z,101455.28
2023-04-15T11:28:39.164Z,101467.34
2023-04-15T11:31:11.813Z,101457.53
2023-04-15T11:33:46.899Z,101448.00
2023-04-15T11:36:14.887Z,101464.38
2023-04-15T11:38:47.454Z,101467.13
2023-04-15T11:41:15.454Z,101468.38
2023-04-15T11:43:43.795Z,101464.84
2023-04-15T11:46:13.036Z,101473.91
2023-04-15T11:48:44.328Z,101473.63
2023-04-15T11:51:13.145Z,101473.09
2023-04-15T11:53:42.486Z,101467.72
2023-04-15T11:56:11.721Z,101479.72
2023-04-15T11:58:40.193Z,101483.72
2023-04-15T12:01:08.359Z,101481.41
2023-04-15T12:03:42.462Z,101489.22
2023-04-15T12:06:17.053Z,101485.69
2023-04-15T12:09:02.868Z,101495.81
2023-04-15T12:11:33.306Z,101501.88
2023-04-15T12:14:05.856Z,101508.41
2023-04-15T12:16:37.261Z,101496.88
2023-04-15T12:19:24.197Z,101508.34
2023-04-15T12:21:53.452Z,101508.03
2023-04-15T12:24:23.684Z,101519.38
2023-04-15T12:26:53.398Z,101520.53
2023-04-15T12:29:22.180Z,101520.16
2023-04-15T12:31:52.376Z,101522.75
2023-04-15T12:34:29.430Z,101530.00
2023-04-15T12:36:58.906Z,101523.69
2023-04-15T12:39:29.978Z,101529.22
2023-04-15T12:41:58.772Z,101529.75
2023-04-15T12:44:27.146Z,101534.03
2023-04-15T12:46:55.513Z,101548.94
2023-04-15T12:49:25.498Z,101544.91
2023-04-15T12:51:55.339Z,101549.91
2023-04-15T12:54:23.516Z,101544.09
2023-04-15T12:56:52.295Z,101561.75
2023-04-15T12:59:20.125Z,101555.72
2023-04-15T13:01:48.825Z,101558.88
2023-04-15T13:04:17.619Z,101561.75
2023-04-15T13:06:46.774Z,101561.22
2023-04-15T13:09:14.598Z,101554.91
2023-04-15T13:11:42.559Z,101568.75
2023-04-15T13:14:11.446Z,101569.38
2023-04-15T13:16:39.834Z,101571.16
2023-04-15T13:19:07.977Z,101589.41
2023-04-15T13:21:36.420Z,101582.38
2023-04-15T13:24:07.204Z,101585.28
2023-04-15T13:26:34.987Z,101592.47
2023-04-15T13:29:02.896Z,101596.13
2023-04-15T13:31:30.741Z,101598.97
2023-04-15T13:33:58.553Z,101600.41
2023-04-15T13:36:26.412Z,101605.19
2023-04-15T13:38:54.215Z,101608.81
2023-04-15T13:41:23.364Z,101611.69
2023-04-15T13:43:51.193Z,101613.81
2023-04-15T13:46:19.200Z,101616.44
2023-04-15T13:48:46.993Z,101613.06
2023-04-15T13:51:14.804Z,101623.31
2023-04-15T13:53:42.567Z,101637.03
2023-04-15T13:56:10.797Z,101634.50
2023-04-15T13:58:41.506Z,101635.56
2023-04-15T14:01:09.511Z,101637.00
2023-04-15T14:03:37.490Z,101633.56
2023-04-15T14:06:06.171Z,101635.19
2023-04-15T14:08:34.189Z,101637.00
2023-04-15T14:11:02.063Z,101639.00
2023-04-15T14:13:30.076Z,101640.41
2023-04-15T14:15:59.380Z,101646.50
2023-04-15T14:18:27.283Z,101654.41
2023-04-15T14:20:55.541Z,101644.72
2023-04-15T14:23:23.426Z,101669.50
2023-04-15T14:25:51.718Z,101671.81
2023-04-15T14:28:19.483Z,101666.19
2023-04-15T14:30:47.459Z,101672.22
2023-04-15T14:33:16.770Z,101685.25
2023-04-15T14:35:44.574Z,101681.97
2023-04-15T14:38:12.354Z,101687.81
2023-04-15T14:40:40.255Z,101690.88
2023-04-15T14:43:08.126Z,101695.19
2023-04-15T14:45:36.327Z,101691.06
2023-04-15T14:48:04.514Z,101689.53
2023-04-15T14:50:33.740Z,101701.25
2023-04-15T14:53:01.488Z,101702.31
2023-04-15T14:55:29.272Z,101711.16
2023-04-15T14:57:57.059Z,101715.56
2023-04-15T15:00:24.822Z,101717.53
2023-04-15T15:02:52.699Z,101727.00
2023-04-15T15:05:20.812Z,101738.13
2023-04-15T15:07:49.977Z,101733.25
2023-04-15T15:10:17.929Z,101738.28
2023-04-15T15:13:06.798Z,101739.75
2023-04-15T15:15:34.889Z,101738.31
2023-04-15T15:18:03.238Z,101740.03
2023-04-15T15:20:31.701Z,101750.31
2023-04-15T15:23:01.248Z,101748.84
2023-04-15T15:25:29.771Z,101753.25
2023-04-15T15:27:58.971Z,101753.69
2023-04-15T15:30:27.010Z,101757.59
2023-04-15T15:32:54.953Z,101753.59
2023-04-15T15:35:23.627Z,101753.66
2023-04-15T15:37:51.574Z,101765.53
2023-04-15T15:40:20.762Z,101757.59
2023-04-15T15:42:49.915Z,101769.84
2023-04-15T15:45:18.304Z,101769.06
2023-04-15T15:47:46.291Z,101768.16
2023-04-15T15:50:14.792Z,101777.28
2023-04-15T15:52:42.605Z,101771.84
2023-04-15T15:55:10.709Z,101763.84
2023-04-15T15:57:39.967Z,101776.59
2023-04-15T16:00:12.712Z,101775.00
2023-04-15T16:05:12.024Z,101780.34
2023-04-15T16:07:39.797Z,101791.22
2023-04-15T16:10:08.676Z,101795.50
2023-04-15T16:12:36.601Z,101797.34
2023-04-15T16:15:06.721Z,101804.59
2023-04-15T16:17:34.737Z,101803.19
2023-04-15T16:20:05.406Z,101800.41
2023-04-15T16:22:33.657Z,101814.06
2023-04-15T16:25:02.111Z,101809.28
2023-04-15T16:27:29.976Z,101806.13
2023-04-15T16:29:57.723Z,101816.00
2023-04-15T16:32:27.982Z,101816.22
2023-04-15T16:34:56.160Z,101817.09
2023-04-15T16:37:24.053Z,101815.78
2023-04-15T16:39:51.847Z,101830.97
2023-04-15T16:42:19.752Z,101834.81
2023-04-15T16:44:47.509Z,101829.34
2023-04-15T16:47:15.307Z,101834.91
2023-04-15T16:49:44.434Z,101841.47
2023-04-15T16:52:12.218Z,101836.06
2023-04-15T16:54:41.418Z,101852.06
2023-04-15T16:57:09.370Z,101847.91
2023-04-15T16:59:37.230Z,101836.78
2023-04-15T17:02:05.185Z,101843.22
2023-04-15T17:04:33.392Z,101851.19
2023-04-15T17:07:02.713Z,101849.22
2023-04-15T17:09:30.477Z,101853.50
2023-04-15T17:11:58.586Z,101856.22
2023-04-15T17:14:26.422Z,101858.56
2023-04-15T17:16:54.275Z,101859.31
2023-04-15T17:19:22.252Z,101857.34
2023-04-15T17:21:50.100Z,101855.59
2023-04-15T17:24:19.297Z,101859.47
2023-04-15T17:26:47.870Z,101872.34
2023-04-15T17:29:15.591Z,101867.22
2023-04-15T17:31:43.494Z,101876.03
2023-04-15T17:34:12.640Z,101873.22
2023-04-15T17:36:41.795Z,101875.19
2023-04-15T17:39:09.593Z,101875.09
2023-04-15T17:41:38.788Z,101883.38
2023-04-15T17:44:06.783Z,101870.69
2023-04-15T17:46:34.933Z,101879.13
2023-04-15T17:49:03.343Z,101891.75
2023-04-15T17:51:31.738Z,101894.31
2023-04-15T17:54:08.076Z,101890.06
2023-04-15T17:56:35.911Z,101904.38
2023-04-15T17:59:05.009Z,101910.94
2023-04-15T18:01:32.849Z,101913.75
2023-04-15T18:04:00.842Z,101909.66
2023-04-15T18:06:28.739Z,101921.16
2023-04-15T18:08:56.589Z,101917.16
2023-04-15T18:11:24.395Z,101914.88
2023-04-15T18:13:52.231Z,101918.78
2023-04-15T18:16:21.581Z,101924.66
2023-04-15T18:18:49.394Z,101926.91
2023-04-15T18:21:17.146Z,101925.88
2023-04-15T18:23:45.060Z,101926.63
2023-04-15T18:26:12.802Z,101926.13
2023-04-15T18:28:40.656Z,101940.25
2023-04-15T18:31:08.488Z,101934.47
2023-04-15T18:33:37.657Z,101940.88
2023-04-15T18:36:05.618Z,101943.59
2023-04-15T18:38:33.385Z,101948.97
2023-04-15T18:41:01.312Z,101942.00
2023-04-15T18:43:29.070Z,101941.13
2023-04-15T18:45:56.958Z,101960.22
2023-04-15T18:48:24.823Z,101957.84
2023-04-15T18:50:54.345Z,101949.47
2023-04-15T18:53:22.497Z,101961.31
2023-04-15T18:55:50.466Z,101958.50
2023-04-15T18:58:18.361Z,101970.59
2023-04-15T19:00:46.249Z,101967.50
2023-04-15T19:03:14.158Z,101975.56
2023-04-15T19:05:41.969Z,101980.38
2023-04-15T19:08:11.721Z,101981.56
2023-04-15T19:10:39.691Z,101986.69
2023-04-15T19:13:07.528Z,101982.78
2023-04-15T19:15:35.352Z,101986.97
2023-04-15T19:18:05.296Z,101986.88
2023-04-15T19:20:36.644Z,101978.50
2023-04-15T19:23:06.163Z,101990.81
2023-04-15T19:25:35.351Z,101980.00
2023-04-15T19:28:03.218Z,101989.50
2023-04-15T19:30:32.370Z,101988.47
2023-04-15T19:33:00.317Z,101993.91
2023-04-15T19:35:28.189Z,101999.22
2023-04-15T19:37:56.037Z,101998.88
2023-04-15T19:40:23.850Z,101998.63
2023-04-15T19:42:53.065Z,101999.91
2023-04-15T19:45:20.991Z,102001.09
2023-04-15T19:47:49.067Z,102011.28
2023-04-15T19:50:17.020Z,102000.53
2023-04-15T19:52:44.797Z,102015.00
2023-04-15T19:55:12.592Z,102012.69
2023-04-15T19:57:40.823Z,102013.09
2023-04-15T20:00:11.356Z,102014.41
2023-04-15T20:02:39.241Z,102018.44
2023-04-15T20:05:09.824Z,102018.25
2023-04-15T20:07:39.607Z,102017.84
2023-04-15T20:10:12.134Z,102012.09
2023-04-15T20:12:50.394Z,102020.34
2023-04-15T20:15:23.887Z,102017.50
2023-04-15T20:17:52.125Z,102012.09
2023-04-15T20:20:20.366Z,102012.59
2023-04-15T20:22:48.186Z,102015.53
2023-04-15T20:25:16.238Z,102023.28
2023-04-15T20:27:44.030Z,102016.16
2023-04-15T20:30:12.462Z,102025.81
2023-04-15T20:32:41.633Z,102031.69
2023-04-15T20:35:09.637Z,102027.38
2023-04-15T20:37:40.336Z,102031.75
2023-04-15T20:40:09.266Z,102024.78
2023-04-15T20:42:37.033Z,102029.31
2023-04-15T20:45:06.969Z,102026.03
2023-04-15T20:47:34.802Z,102023.38
2023-04-15T20:50:03.970Z,102025.63
2023-04-15T20:52:31.831Z,102030.72
2023-04-15T20:54:59.596Z,102026.28
2023-04-15T20:57:28.706Z,102028.13
2023-04-15T20:59:56.510Z,102030.00
2023-04-15T21:02:24.710Z,102025.00
2023-04-15T21:04:52.650Z,102035.22
2023-04-15T21:07:21.801Z,102036.28
2023-04-15T21:09:49.636Z,102036.44
2023-04-15T21:12:17.457Z,102029.28
2023-04-15T21:14:45.477Z,102034.00
2023-04-15T21:17:13.291Z,102036.38
2023-04-15T21:19:41.344Z,102038.28
2023-04-15T21:22:09.120Z,102044.63
2023-04-15T21:24:38.276Z,102042.38
2023-04-15T21:27:06.354Z,102043.97
2023-04-15T21:29:34.219Z,102043.84
2023-04-15T21:32:02.069Z,102044.53
2023-04-15T21:34:29.938Z,102053.97
2023-04-15T21:36:57.709Z,102047.72
2023-04-15T21:39:25.745Z,102054.78
2023-04-15T21:41:54.989Z,102049.34
2023-04-15T21:44:22.773Z,102048.88
2023-04-15T21:46:51.002Z,102052.31
2023-04-15T21:49:20.255Z,102050.94
2023-04-15T21:51:48.531Z,102039.22
2023-04-15T21:54:16.556Z,102048.09
2023-04-15T21:56:44.385Z,102058.66
2023-04-15T21:59:13.534Z,102062.97
2023-04-15T22:01:41.336Z,102064.84
2023-04-15T22:04:10.920Z,102072.63
2023-04-15T22:06:39.392Z,102066.75
2023-04-15T22:09:07.197Z,102072.75
2023-04-15T22:11:35.005Z,102077.69
2023-04-15T22:14:02.743Z,102081.66
2023-04-15T22:16:31.948Z,102077.56
2023-04-15T22:18:59.743Z,102075.94
2023-04-15T22:21:27.847Z,102072.09
2023-04-15T22:24:32.271Z,102084.03
2023-04-15T22:26:43.646Z,102074.34
2023-04-15T22:29:11.650Z,102076.28
2023-04-15T22:31:40.845Z,102080.91
2023-04-15T22:34:08.799Z,102084.03
2023-04-15T22:36:36.620Z,102081.25
2023-04-15T22:39:04.746Z,102085.94
2023-04-15T22:41:32.689Z,102092.16
2023-04-15T22:44:00.474Z,102089.34
2023-04-15T22:46:28.255Z,102087.75
2023-04-15T22:48:57.433Z,102088.66
2023-04-15T22:51:26.926Z,102087.13
2023-04-15T22:53:54.866Z,102089.13
2023-04-15T22:56:23.525Z,102091.03
2023-04-15T22:58:51.712Z,102092.28
2023-04-15T23:01:20.781Z,102094.66
2023-04-15T23:03:57.957Z,102099.72
2023-04-15T23:06:34.638Z,102100.84
2023-04-15T23:09:02.448Z,102105.88
2023-04-15T23:11:30.308Z,102105.44
2023-04-15T23:13:58.131Z,102104.28
2023-04-15T23:16:26.038Z,102100.38
2023-04-15T23:18:53.938Z,102108.66
2023-04-15T23:21:22.216Z,102116.41
2023-04-15T23:23:52.329Z,102124.09
2023-04-15T23:26:20.109Z,102118.97
2023-04-15T23:28:47.864Z,102113.97
2023-04-15T23:31:15.619Z,102118.63
2023-04-15T23:33:43.417Z,102120.16
2023-04-15T23:36:11.191Z,102117.81
2023-04-15T23:38:38.936Z,102118.63
2023-04-15T23:41:08.870Z,102116.34
2023-04-15T23:43:36.664Z,102128.06
2023-04-15T23:46:04.496Z,102129.66
2023-04-15T23:48:32.642Z,102124.97
2023-04-15T23:51:01.566Z,102123.09
2023-04-15T23:53:30.018Z,102132.09
2023-04-15T23:55:57.923Z,102129.38
2023-04-15T23:58:27.060Z,102122.38
